Time;durP1;ratioP1;P1;durP2;ratioP2;P2;SDS_P1;SDS_P2;PMS_P1;PMS_P2;Temp;Humidity;BMP_temperature;BMP_pressure;BME280_temperature;BME280_humidity;BME280_pressure;Samples;Min_cycle;Max_cycle;Signal;HPM_P1;HPM_P2
2021/11/02 00:00:52;;;;;;;1.65;1.38;;;6.10;99.90;;;;;;5091607;28;20043;-87
2021/11/02 00:03:18;;;;;;;1.08;1.02;;;6.00;99.90;;;;;;5062411;28;20045;-85
2021/11/02 00:05:43;;;;;;;4.63;1.65;;;5.90;99.90;;;;;;5101399;28;20040;-87
2021/11/02 00:08:10;;;;;;;1.77;1.42;;;5.90;99.90;;;;;;5058069;28;20377;-85
2021/11/02 00:10:35;;;;;;;4.20;1.52;;;5.80;99.90;;;;;;5094146;28;20075;-87
2021/11/02 00:13:03;;;;;;;2.30;1.38;;;5.70;99.90;;;;;;5074273;28;20114;-87
2021/11/02 00:15:32;;;;;;;2.10;1.67;;;5.70;99.90;;;;;;5081268;28;20123;-85
2021/11/02 00:18:03;;;;;;;2.13;1.85;;;5.70;99.90;;;;;;5077619;28;20037;-85
2021/11/02 00:20:28;;;;;;;2.63;1.83;;;5.70;99.90;;;;;;5106041;28;20041;-85
2021/11/02 00:22:56;;;;;;;1.58;1.40;;;5.50;99.90;;;;;;5072732;28;20048;-85
2021/11/02 00:25:25;;;;;;;1.20;1.10;;;5.60;99.90;;;;;;5103616;27;20044;-83
2021/11/02 00:27:52;;;;;;;2.70;1.50;;;5.50;99.90;;;;;;5086124;28;20049;-86
2021/11/02 00:30:19;;;;;;;1.70;1.55;;;5.50;99.90;;;;;;5108214;27;20491;-86
2021/11/02 00:32:47;;;;;;;2.25;1.38;;;5.50;99.90;;;;;;5089988;28;20122;-88
2021/11/02 00:35:15;;;;;;;1.48;1.38;;;5.50;99.90;;;;;;5107655;27;20115;-88
2021/11/02 00:37:41;;;;;;;1.98;1.33;;;5.50;99.90;;;;;;5089060;28;20048;-88
2021/11/02 00:40:08;;;;;;;1.85;1.75;;;5.50;99.90;;;;;;5057135;28;20075;-86
2021/11/02 00:42:39;;;;;;;1.52;1.33;;;5.50;99.90;;;;;;5102384;28;20410;-86
2021/11/02 00:45:12;;;;;;;1.60;1.50;;;5.40;99.90;;;;;;5089284;28;20433;-85
2021/11/02 00:47:39;;;;;;;1.83;1.15;;;5.40;99.90;;;;;;5095736;28;20059;-86
2021/11/02 00:50:10;;;;;;;2.85;2.15;;;5.40;99.90;;;;;;5087639;28;20070;-86
2021/11/02 00:52:40;;;;;;;1.30;1.20;;;5.40;99.90;;;;;;5106818;27;20109;-87
2021/11/02 00:55:07;;;;;;;4.80;1.90;;;5.50;99.90;;;;;;5105715;27;20070;-88
2021/11/02 00:57:34;;;;;;;1.60;1.50;;;5.50;99.90;;;;;;5055566;28;20089;-86
2021/11/02 01:00:01;;;;;;;2.28;1.75;;;5.60;99.90;;;;;;5073057;28;20037;-86
2021/11/02 01:02:26;;;;;;;2.25;2.05;;;5.60;99.90;;;;;;5052721;28;20040;-87
2021/11/02 01:04:52;;;;;;;1.55;1.35;;;5.70;99.90;;;;;;5092039;28;20512;-85
2021/11/02 01:07:18;;;;;;;1.55;1.40;;;5.70;99.90;;;;;;5075393;28;20131;-85
2021/11/02 01:09:44;;;;;;;2.33;1.85;;;5.70;99.90;;;;;;5101933;27;20123;-87
2021/11/02 01:12:11;;;;;;;1.70;1.60;;;5.80;99.90;;;;;;5089036;28;20052;-86
2021/11/02 01:14:38;;;;;;;2.70;2.03;;;5.90;99.90;;;;;;5086875;28;20468;-87
2021/11/02 01:17:04;;;;;;;2.42;1.35;;;5.80;99.90;;;;;;5090154;28;20040;-87
2021/11/02 01:19:30;;;;;;;1.92;1.73;;;5.80;99.90;;;;;;5072979;28;20508;-85
2021/11/02 01:21:56;;;;;;;1.85;1.38;;;5.80;99.90;;;;;;5076559;28;20043;-86
2021/11/02 01:24:22;;;;;;;2.45;1.73;;;5.80;99.90;;;;;;5075874;28;20127;-86
2021/11/02 01:26:48;;;;;;;2.10;1.80;;;5.80;99.90;;;;;;5102681;27;20140;-87
2021/11/02 01:29:15;;;;;;;;;;;6.00;99.90;;;;;;5073363;28;20384;-86
2021/11/02 01:31:43;;;;;;;3.75;2.78;;;5.90;99.90;;;;;;5088994;28;19922;-87
2021/11/02 01:34:08;;;;;;;3.53;2.75;;;6.60;99.90;;;;;;5098294;28;20044;-87
2021/11/02 01:36:34;;;;;;;1.90;1.73;;;5.90;99.90;;;;;;5071144;28;20040;-88
2021/11/02 01:39:01;;;;;;;;;;;6.00;99.90;;;;;;5071862;28;20140;-87
2021/11/02 01:41:29;;;;;;;3.70;1.88;;;5.90;99.90;;;;;;5086796;28;20277;-87
2021/11/02 01:43:57;;;;;;;3.97;2.25;;;6.20;99.90;;;;;;5105790;28;20063;-87
2021/11/02 01:46:28;;;;;;;3.55;2.92;;;6.50;99.90;;;;;;5053059;28;20047;-87
2021/11/02 01:48:56;;;;;;;2.38;2.00;;;6.20;99.90;;;;;;5071308;28;20513;-87
2021/11/02 01:51:25;;;;;;;4.30;2.65;;;5.80;99.90;;;;;;5069933;28;20044;-86
2021/11/02 01:53:51;;;;;;;3.78;2.00;;;5.90;99.90;;;;;;5104506;28;20044;-86
2021/11/02 01:56:18;;;;;;;2.88;1.55;;;5.90;99.90;;;;;;5094944;27;20505;-87
2021/11/02 01:58:47;;;;;;;1.48;1.38;;;5.90;99.90;;;;;;5068556;28;20084;-86
2021/11/02 02:01:33;;;;;;;2.00;1.85;;;5.90;99.90;;;;;;5098555;28;20368;-89
2021/11/02 02:04:11;;;;;;;5.93;2.50;;;6.00;99.90;;;;;;5063786;28;20068;-88
2021/11/02 02:06:56;;;;;;;2.35;2.15;;;6.00;99.90;;;;;;5070137;28;20123;-87
2021/11/02 02:09:48;;;;;;;2.33;2.08;;;5.90;99.90;;;;;;5070768;28;20056;-87
2021/11/02 02:12:32;;;;;;;2.67;2.20;;;6.10;99.90;;;;;;5070157;28;20566;-87
2021/11/02 02:15:17;;;;;;;2.42;2.22;;;5.80;99.90;;;;;;5068627;28;20070;-87
2021/11/02 02:17:52;;;;;;;2.97;2.17;;;5.90;99.90;;;;;;5071281;28;20043;-87
2021/11/02 02:20:49;;;;;;;3.05;2.75;;;5.80;99.90;;;;;;5068868;28;20055;-88
2021/11/02 02:23:23;;;;;;;3.60;2.40;;;5.80;99.90;;;;;;5119978;27;20059;-88
2021/11/02 02:26:07;;;;;;;3.15;2.65;;;6.00;99.90;;;;;;5114736;27;20051;-88
2021/11/02 02:28:37;;;;;;;2.60;1.73;;;5.60;99.90;;;;;;5075693;28;20040;-89
2021/11/02 02:31:06;;;;;;;6.15;3.42;;;5.60;99.90;;;;;;5098312;28;20345;-87
2021/11/02 02:33:39;;;;;;;3.28;2.10;;;5.50;99.90;;;;;;5065273;28;20040;-88
2021/11/02 02:36:05;;;;;;;3.85;2.58;;;5.60;99.90;;;;;;5060911;28;20044;-89
2021/11/02 02:38:35;;;;;;;1.42;1.33;;;5.50;99.90;;;;;;5104210;27;20053;-88
2021/11/02 02:41:03;;;;;;;4.93;2.83;;;5.60;99.90;;;;;;5092980;28;20409;-87
2021/11/02 02:43:33;;;;;;;2.35;2.15;;;5.40;99.90;;;;;;5070635;28;20056;-87
2021/11/02 02:46:00;;;;;;;1.60;1.50;;;5.40;99.90;;;;;;5113465;27;20474;-86
2021/11/02 02:48:27;;;;;;;1.20;1.10;;;5.30;99.90;;;;;;5099594;27;20052;-87
2021/11/02 02:50:57;;;;;;;2.47;2.28;;;5.30;99.90;;;;;;5062382;28;20433;-87
2021/11/02 02:53:24;;;;;;;3.28;2.40;;;5.30;99.90;;;;;;5070851;28;20064;-87
2021/11/02 02:55:53;;;;;;;5.68;3.10;;;5.40;99.90;;;;;;5074539;28;20386;-87
2021/11/02 02:58:20;;;;;;;2.78;2.55;;;5.20;99.90;;;;;;5103218;28;20048;-85
2021/11/02 03:00:47;;;;;;;2.67;2.05;;;5.10;99.90;;;;;;5075059;28;20060;-87
2021/11/02 03:03:14;;;;;;;3.97;2.28;;;5.00;99.90;;;;;;5064119;28;20074;-85
2021/11/02 03:05:40;;;;;;;3.70;2.10;;;5.00;99.90;;;;;;5085927;28;20032;-85
2021/11/02 03:08:07;;;;;;;3.17;2.78;;;4.90;99.90;;;;;;5071147;28;20413;-85
2021/11/02 03:10:33;;;;;;;2.45;2.22;;;5.00;99.90;;;;;;5107768;28;20470;-86
2021/11/02 03:13:06;;;;;;;3.10;2.85;;;4.90;99.90;;;;;;5105079;28;20040;-86
2021/11/02 05:47:13;;;;;;;4.65;3.00;;;4.90;99.90;;;;;;5090377;28;20051;-86
2021/11/02 05:49:54;;;;;;;7.65;2.75;;;4.90;99.90;;;;;;5049488;28;20482;-86
2021/11/02 05:57:53;;;;;;;2.70;2.50;;;4.90;99.90;;;;;;5106739;27;20056;-86
2021/11/02 06:00:23;;;;;;;4.18;3.38;;;4.90;99.90;;;;;;5096460;28;20396;-86
2021/11/02 06:05:55;;;;;;;2.60;2.22;;;5.00;99.90;;;;;;5104135;28;20386;-85
2021/11/02 06:11:29;;;;;;;4.72;2.92;;;5.00;99.90;;;;;;5105931;27;20054;-86
2021/11/02 06:28:22;;;;;;;9.80;5.25;;;4.90;99.90;;;;;;5094154;28;20041;-86
2021/11/02 06:31:00;;;;;;;4.93;4.43;;;5.10;99.90;;;;;;5081996;28;20044;-87
2021/11/02 06:36:32;;;;;;;4.38;2.97;;;4.90;99.90;;;;;;5059861;28;20118;-87
2021/11/02 06:44:51;;;;;;;3.88;3.00;;;4.90;99.90;;;;;;5097649;27;20048;-85
2021/11/02 06:47:49;;;;;;;7.18;3.88;;;5.10;99.90;;;;;;5097452;27;20557;-86
2021/11/02 07:20:37;;;;;;;7.60;4.70;;;5.60;99.90;;;;;;5070280;28;20055;-85
2021/11/02 07:23:22;;;;;;;11.40;5.10;;;5.60;99.90;;;;;;5096366;28;20123;-85
2021/11/02 07:26:14;;;;;;;8.02;5.60;;;5.70;99.90;;;;;;5070244;28;20415;-85
2021/11/02 08:45:31;;;;;;;8.52;4.07;;;6.50;99.90;;;;;;5096708;28;20045;-84
2021/11/02 08:48:01;;;;;;;15.77;5.43;;;6.60;99.90;;;;;;5069617;28;20052;-85
2021/11/02 08:50:33;;;;;;;6.95;4.57;;;6.60;99.90;;;;;;5108909;27;20067;-84
2021/11/02 08:53:01;;;;;;;10.07;5.57;;;6.60;99.90;;;;;;5114778;27;20499;-86
2021/11/02 08:55:27;;;;;;;12.65;5.72;;;6.70;99.90;;;;;;5070035;28;20477;-84
2021/11/02 08:57:56;;;;;;;9.50;5.97;;;6.90;99.90;;;;;;5088535;28;20051;-83
2021/11/02 09:00:22;;;;;;;10.88;6.80;;;6.70;99.90;;;;;;5104730;27;20052;-85
2021/11/02 09:02:49;;;;;;;;;;;6.70;99.90;;;;;;5104885;27;20446;-84
2021/11/02 09:05:24;;;;;;;15.90;6.88;;;6.80;99.90;;;;;;5070754;28;20373;-85
2021/11/02 09:07:54;;;;;;;4.25;3.55;;;6.80;99.90;;;;;;5053912;28;20036;-84
2021/11/02 09:10:21;;;;;;;12.65;5.50;;;7.10;99.90;;;;;;5114475;27;20077;-85
2021/11/02 09:12:49;;;;;;;7.53;5.90;;;6.90;99.90;;;;;;5100980;27;20094;-84
2021/11/02 09:15:16;;;;;;;14.55;5.70;;;6.90;99.90;;;;;;5102446;28;20413;-84
2021/11/02 09:17:50;;;;;;;11.30;6.13;;;7.10;99.90;;;;;;5067854;28;20127;-84
2021/11/02 09:20:18;;;;;;;8.32;5.35;;;7.10;99.90;;;;;;5101299;28;20547;-85
2021/11/02 09:22:45;;;;;;;8.35;5.03;;;7.10;99.90;;;;;;5104166;27;20028;-84
2021/11/02 09:25:11;;;;;;;11.98;6.50;;;7.20;99.90;;;;;;5068836;28;20048;-85
2021/11/02 09:27:44;;;;;;;11.25;5.65;;;7.20;99.90;;;;;;5102530;27;20037;-85
2021/11/02 09:30:12;;;;;;;6.47;4.32;;;7.30;99.90;;;;;;5102987;28;20081;-84
2021/11/02 09:32:44;;;;;;;12.70;5.50;;;7.40;99.90;;;;;;5086255;28;20376;-85
2021/11/02 09:35:12;;;;;;;12.45;6.68;;;7.50;99.90;;;;;;5070012;28;20045;-84
2021/11/02 09:37:42;;;;;;;7.43;5.47;;;7.60;99.90;;;;;;5103329;27;20048;-84
2021/11/02 09:40:27;;;;;;;10.45;6.82;;;7.60;99.90;;;;;;5068503;28;20441;-83
2021/11/02 09:43:04;;;;;;;10.70;5.05;;;7.70;99.90;;;;;;5099469;28;20051;-85
2021/11/02 09:45:42;;;;;;;12.55;6.00;;;7.70;99.90;;;;;;5068895;28;20044;-84
2021/11/02 09:48:11;;;;;;;6.18;4.03;;;7.70;99.90;;;;;;5107562;27;20037;-84
2021/11/02 09:50:36;;;;;;;3.38;3.00;;;7.70;99.90;;;;;;5088586;28;20105;-84
2021/11/02 09:53:27;;;;;;;11.48;5.35;;;7.80;99.90;;;;;;5059325;28;20553;-84
2021/11/02 09:56:23;;;;;;;4.35;3.45;;;7.80;99.90;;;;;;5092565;28;20494;-84
2021/11/02 09:59:09;;;;;;;11.07;5.00;;;7.90;99.90;;;;;;5099483;27;20101;-85
2021/11/02 10:01:49;;;;;;;6.27;4.93;;;8.00;99.90;;;;;;5072937;28;20071;-84
2021/11/02 10:04:26;;;;;;;8.90;5.65;;;8.00;99.90;;;;;;5064317;28;20052;-84
2021/11/02 10:07:05;;;;;;;5.00;3.65;;;8.10;99.90;;;;;;5067612;28;20044;-83
2021/11/02 10:09:53;;;;;;;5.97;4.15;;;8.20;99.90;;;;;;5097799;27;20052;-84
2021/11/02 10:12:22;;;;;;;13.15;5.05;;;8.20;99.90;;;;;;5097372;28;20117;-83
2021/11/02 10:14:59;;;;;;;4.90;4.00;;;8.20;99.90;;;;;;5081907;28;20081;-83
2021/11/02 10:17:51;;;;;;;9.63;3.53;;;8.40;99.90;;;;;;5070630;28;20124;-83
2021/11/02 10:20:43;;;;;;;7.45;4.65;;;8.40;99.90;;;;;;5049346;28;20053;-83
2021/11/02 10:23:47;;;;;;;8.50;4.75;;;8.40;99.90;;;;;;5112039;27;20040;-84
2021/11/02 10:26:33;;;;;;;7.32;5.22;;;8.40;99.90;;;;;;5057615;28;20047;-83
2021/11/02 10:29:20;;;;;;;7.15;4.55;;;8.50;99.90;;;;;;5070140;28;20079;-84
2021/11/02 10:32:00;;;;;;;8.88;5.25;;;8.60;99.90;;;;;;5090085;28;20548;-85
2021/11/02 10:34:34;;;;;;;8.00;3.42;;;8.70;99.90;;;;;;5067608;28;20044;-83
2021/11/02 10:37:17;;;;;;;14.02;5.50;;;8.60;99.90;;;;;;5100705;28;20044;-83
2021/11/02 10:40:14;;;;;;;6.05;3.50;;;8.60;99.90;;;;;;5099925;28;20063;-83
2021/11/02 10:42:57;;;;;;;6.03;4.47;;;8.60;99.90;;;;;;5066493;28;20048;-83
2021/11/02 10:45:28;;;;;;;7.97;3.55;;;8.50;99.90;;;;;;5089323;28;20052;-84
2021/11/02 10:48:03;;;;;;;7.95;3.80;;;8.50;99.90;;;;;;5070240;28;20041;-83
2021/11/02 10:50:31;;;;;;;3.78;3.38;;;8.40;99.90;;;;;;5057370;28;20622;-84
2021/11/02 10:52:59;;;;;;;5.20;4.30;;;8.40;99.90;;;;;;5068557;28;20040;-83
2021/11/02 10:56:02;;;;;;;5.95;4.15;;;8.40;99.90;;;;;;5102585;28;20069;-83
2021/11/02 10:58:51;;;;;;;6.05;3.42;;;8.30;99.90;;;;;;5098336;28;20044;-84
2021/11/02 11:01:18;;;;;;;11.57;4.68;;;8.40;99.90;;;;;;5065999;28;20048;-84
2021/11/02 11:03:47;;;;;;;6.38;4.55;;;8.50;99.90;;;;;;5098997;27;20037;-85
2021/11/02 11:06:14;;;;;;;6.95;5.25;;;8.50;99.90;;;;;;5111715;27;20482;-84
2021/11/02 11:08:46;;;;;;;7.75;3.92;;;8.60;99.90;;;;;;5108721;27;20044;-84
2021/11/02 11:11:16;;;;;;;5.22;3.75;;;8.70;99.90;;;;;;5068287;28;20048;-84
2021/11/02 11:13:45;;;;;;;12.95;5.15;;;8.80;99.90;;;;;;5101324;28;20485;-84
2021/11/02 11:16:17;;;;;;;8.27;5.57;;;8.90;99.90;;;;;;5069257;28;20381;-84
2021/11/02 11:18:52;;;;;;;6.00;4.00;;;9.00;99.90;;;;;;5100026;28;20040;-84
2021/11/02 11:21:20;;;;;;;5.80;4.47;;;9.00;99.90;;;;;;5091435;28;20045;-83
2021/11/02 11:23:56;;;;;;;7.20;4.60;;;9.10;99.90;;;;;;5063281;28;20045;-84
2021/11/02 11:26:25;;;;;;;6.15;3.70;;;9.10;99.90;;;;;;5061429;28;20048;-84
2021/11/02 11:28:53;;;;;;;6.93;5.15;;;9.10;99.90;;;;;;5067204;28;20052;-84
2021/11/02 11:31:21;;;;;;;7.85;4.43;;;9.10;99.90;;;;;;5101081;28;20052;-85
2021/11/02 11:33:55;;;;;;;4.28;3.30;;;9.20;99.90;;;;;;5096626;28;20553;-84
2021/11/02 11:36:25;;;;;;;5.93;4.03;;;9.20;99.90;;;;;;5098481;28;20106;-84
2021/11/02 11:38:57;;;;;;;7.85;5.65;;;9.20;99.90;;;;;;5100368;28;20059;-84
2021/11/02 11:41:25;;;;;;;7.88;5.28;;;9.20;99.90;;;;;;5070207;28;20437;-85
2021/11/02 11:43:53;;;;;;;5.68;3.92;;;9.30;99.90;;;;;;5065811;28;20052;-85
2021/11/02 11:46:19;;;;;;;6.70;5.05;;;9.30;99.90;;;;;;5100327;28;20040;-84
2021/11/02 11:48:54;;;;;;;10.13;4.28;;;9.30;99.90;;;;;;5064045;28;20375;-85
2021/11/02 11:51:21;;;;;;;7.25;3.97;;;9.30;99.90;;;;;;5102492;28;20036;-84
2021/11/02 11:53:49;;;;;;;10.13;5.82;;;9.40;99.90;;;;;;5090488;28;20033;-84
2021/11/02 11:56:17;;;;;;;7.88;5.00;;;9.50;99.90;;;;;;5062101;28;20059;-84
2021/11/02 11:58:57;;;;;;;13.30;6.03;;;9.60;99.90;;;;;;5065426;28;20078;-84
2021/11/02 12:01:23;;;;;;;4.80;3.80;;;9.70;99.90;;;;;;5100853;28;20253;-82
2021/11/02 12:04:09;;;;;;;10.93;4.93;;;9.70;99.90;;;;;;5105555;28;20726;-82
2021/11/02 12:06:45;;;;;;;6.20;4.47;;;9.70;99.90;;;;;;5063895;28;20045;-83
2021/11/02 12:09:17;;;;;;;7.82;5.05;;;9.70;99.90;;;;;;5101850;28;20052;-82
2021/11/02 12:11:43;;;;;;;6.45;4.82;;;9.70;99.90;;;;;;5102423;27;20847;-82
2021/11/02 12:14:25;;;;;;;6.90;4.40;;;9.60;99.90;;;;;;5103504;28;20119;-83
2021/11/02 12:16:52;;;;;;;5.57;3.67;;;9.60;99.90;;;;;;5101920;27;20036;-83
2021/11/02 12:19:34;;;;;;;4.70;3.65;;;9.70;99.90;;;;;;5103585;28;20080;-82
2021/11/02 12:22:04;;;;;;;7.70;3.80;;;9.70;99.90;;;;;;5102353;27;20047;-83
2021/11/02 12:24:32;;;;;;;4.75;3.35;;;9.60;99.90;;;;;;5082560;28;20079;-83
2021/11/02 12:27:13;;;;;;;5.18;3.78;;;9.60;99.90;;;;;;5112103;28;20291;-82
2021/11/02 12:29:41;;;;;;;9.00;3.83;;;9.50;99.90;;;;;;5074799;28;20056;-82
2021/11/02 12:32:11;;;;;;;8.45;3.47;;;9.50;99.90;;;;;;5110141;27;20295;-83
2021/11/02 12:34:48;;;;;;;4.72;3.47;;;9.40;99.90;;;;;;5071200;28;20036;-82
2021/11/02 12:37:14;;;;;;;;;;;9.40;99.90;;;;;;5109748;27;20486;-81
2021/11/02 12:39:41;;;;;;;3.92;3.53;;;9.40;99.90;;;;;;5106331;27;19927;-82
2021/11/02 12:42:08;;;;;;;6.13;3.95;;;9.50;99.90;;;;;;5070879;28;20088;-82
2021/11/02 12:44:36;;;;;;;2.63;2.38;;;9.50;99.90;;;;;;5102867;28;20048;-82
2021/11/02 12:47:05;;;;;;;5.97;3.58;;;9.50;99.90;;;;;;5054655;28;20041;-83
2021/11/02 12:49:54;;;;;;;5.28;3.00;;;9.60;99.90;;;;;;5103144;28;20044;-83
2021/11/02 12:52:25;;;;;;;7.75;3.08;;;9.70;99.90;;;;;;5101163;27;20454;-82
2021/11/02 12:55:03;;;;;;;5.25;3.22;;;9.70;99.90;;;;;;5069559;28;20048;-82
2021/11/02 12:57:51;;;;;;;5.78;3.20;;;9.70;99.90;;;;;;5102975;27;20109;-83
2021/11/02 13:00:26;;;;;;;5.53;3.50;;;9.70;99.90;;;;;;5105465;27;20078;-83
2021/11/02 13:02:58;;;;;;;5.30;2.45;;;9.70;99.90;;;;;;5090955;28;20044;-84
2021/11/02 13:05:27;;;;;;;3.13;2.63;;;9.60;99.90;;;;;;5108094;27;20098;-83
2021/11/02 13:08:12;;;;;;;4.55;2.58;;;9.60;99.90;;;;;;5074099;28;20493;-81
2021/11/02 13:10:44;;;;;;;3.97;2.38;;;9.50;99.90;;;;;;5114258;27;20056;-83
2021/11/02 13:13:15;;;;;;;7.18;3.92;;;9.50;99.90;;;;;;5053804;28;20076;-83
2021/11/02 13:15:53;;;;;;;2.90;2.28;;;9.50;99.90;;;;;;5050774;28;20045;-83
2021/11/02 13:18:32;;;;;;;4.00;2.53;;;9.50;99.90;;;;;;5105015;27;20516;-83
2021/11/02 13:21:25;;;;;;;4.07;2.45;;;9.50;99.90;;;;;;5081417;28;20087;-83
2021/11/02 13:23:58;;;;;;;2.28;1.90;;;9.50;99.90;;;;;;5101779;27;20382;-82
2021/11/02 13:26:25;;;;;;;3.35;2.83;;;9.40;99.90;;;;;;5101458;28;20044;-83
2021/11/02 13:28:50;;;;;;;4.88;2.40;;;9.40;99.90;;;;;;5101693;28;20037;-82
2021/11/02 13:31:34;;;;;;;2.28;2.08;;;9.40;99.90;;;;;;5085520;28;20051;-81
2021/11/02 13:34:01;;;;;;;4.35;2.70;;;9.40;99.90;;;;;;5066903;28;20041;-82
2021/11/02 13:36:28;;;;;;;7.32;2.50;;;9.40;99.90;;;;;;5094482;28;20048;-83
2021/11/02 13:38:58;;;;;;;2.65;2.28;;;9.20;99.90;;;;;;5067765;28;20112;-82
2021/11/02 13:41:30;;;;;;;2.65;2.45;;;9.40;99.90;;;;;;5102063;28;20082;-81
2021/11/02 13:44:01;;;;;;;3.65;2.20;;;9.40;99.90;;;;;;5061077;28;20044;-80
2021/11/02 13:46:30;;;;;;;2.95;2.58;;;9.40;99.90;;;;;;5082832;28;20127;-83
2021/11/02 13:48:56;;;;;;;4.13;2.83;;;9.40;99.90;;;;;;5070270;28;20041;-82
2021/11/02 13:51:23;;;;;;;6.05;4.00;;;9.40;99.90;;;;;;5103528;27;20041;-84
2021/11/02 13:53:49;;;;;;;4.03;2.28;;;9.50;99.90;;;;;;5097701;28;20055;-83
2021/11/02 13:56:21;;;;;;;4.95;3.10;;;9.60;99.90;;;;;;5103471;27;20125;-82
2021/11/02 13:58:47;;;;;;;3.20;2.78;;;9.60;99.90;;;;;;5101731;28;20052;-82
2021/11/02 14:01:33;;;;;;;4.15;1.70;;;9.60;99.90;;;;;;5105241;27;20056;-84
2021/11/02 14:04:32;;;;;;;4.57;2.60;;;9.70;99.90;;;;;;5097401;28;20049;-82
2021/11/02 14:07:11;;;;;;;2.60;1.83;;;9.70;99.90;;;;;;5097186;27;20385;-82
2021/11/02 14:09:41;;;;;;;4.75;2.45;;;9.80;99.90;;;;;;5085784;28;20036;-83
2021/11/02 14:12:52;;;;;;;2.00;1.80;;;9.90;99.90;;;;;;5107269;27;20071;-82
2021/11/02 14:15:29;;;;;;;5.57;2.83;;;9.90;99.90;;;;;;5008401;28;20091;-83
2021/11/02 14:17:57;;;;;;;8.40;3.25;;;9.90;99.90;;;;;;5006282;28;20534;-83
2021/11/02 14:20:51;;;;;;;3.88;2.42;;;10.00;99.90;;;;;;5045664;28;20056;-83
2021/11/02 14:23:31;;;;;;;3.58;2.83;;;9.90;99.90;;;;;;5065679;28;20056;-83
2021/11/02 14:26:19;;;;;;;4.07;2.85;;;9.90;99.90;;;;;;5074040;28;20049;-82
2021/11/02 14:29:03;;;;;;;4.55;3.30;;;9.90;99.90;;;;;;5087931;28;20049;-83
2021/11/02 14:31:38;;;;;;;3.67;3.17;;;9.90;99.90;;;;;;5064965;28;20044;-83
2021/11/02 14:34:04;;;;;;;3.30;2.42;;;9.90;99.90;;;;;;5097357;27;20074;-83
2021/11/02 14:36:40;;;;;;;4.57;3.88;;;9.90;99.90;;;;;;5071039;28;20440;-83
2021/11/02 14:39:11;;;;;;;5.63;2.97;;;9.90;99.90;;;;;;5065161;28;20064;-83
2021/11/02 14:41:47;;;;;;;4.68;2.40;;;9.80;99.90;;;;;;5068547;28;20075;-83
2021/11/02 14:44:31;;;;;;;6.22;2.67;;;9.80;99.90;;;;;;5069133;28;20036;-83
2021/11/02 14:46:58;;;;;;;3.72;2.50;;;9.70;99.90;;;;;;5075900;28;20405;-84
2021/11/02 14:49:27;;;;;;;3.00;2.17;;;9.70;99.90;;;;;;5102182;28;20079;-82
2021/11/02 14:52:26;;;;;;;6.50;2.28;;;9.60;99.90;;;;;;5102305;28;20083;-83
2021/11/02 14:54:52;;;;;;;4.30;2.30;;;9.60;99.90;;;;;;5069192;28;20041;-82
2021/11/02 14:57:24;;;;;;;3.88;3.10;;;9.50;99.90;;;;;;5084593;28;20343;-83
2021/11/02 14:59:54;;;;;;;2.28;1.70;;;9.50;99.90;;;;;;5066701;28;20052;-84
2021/11/02 15:02:34;;;;;;;3.38;2.80;;;9.40;99.90;;;;;;5085734;28;20044;-83
2021/11/02 15:05:06;;;;;;;5.70;3.83;;;9.30;99.90;;;;;;5068448;28;20044;-84
2021/11/02 15:07:36;;;;;;;5.10;3.33;;;9.30;99.90;;;;;;5102274;28;20517;-83
2021/11/02 15:10:08;;;;;;;4.90;2.55;;;9.20;99.90;;;;;;5069790;28;20091;-83
2021/11/02 15:12:35;;;;;;;2.42;2.05;;;9.20;99.90;;;;;;5097897;28;20053;-84
2021/11/02 15:15:02;;;;;;;5.70;2.50;;;9.10;99.90;;;;;;5068193;28;20039;-84
2021/11/02 15:17:28;;;;;;;6.80;2.85;;;9.10;99.90;;;;;;5100429;28;20052;-83
2021/11/02 15:19:54;;;;;;;3.67;2.95;;;9.10;99.90;;;;;;5101082;28;20044;-82
2021/11/02 15:22:21;;;;;;;4.82;3.33;;;9.00;99.90;;;;;;5102669;28;20513;-83
2021/11/02 15:24:51;;;;;;;4.65;3.75;;;9.00;99.90;;;;;;5062723;28;20040;-82
2021/11/02 15:27:19;;;;;;;3.15;2.30;;;8.90;99.90;;;;;;5067502;28;20461;-84
2021/11/02 15:29:51;;;;;;;4.40;2.75;;;8.90;99.90;;;;;;5118223;28;20052;-83
2021/11/02 15:32:19;;;;;;;3.08;2.53;;;8.90;99.90;;;;;;5073481;28;20055;-84
2021/11/02 15:34:54;;;;;;;6.00;2.63;;;8.80;99.90;;;;;;5098918;28;20043;-83
2021/11/02 15:37:27;;;;;;;4.15;3.17;;;8.80;99.90;;;;;;5100603;28;20118;-84
2021/11/02 15:39:57;;;;;;;4.85;3.05;;;8.70;99.90;;;;;;5067563;28;20060;-83
2021/11/02 15:42:46;;;;;;;5.40;2.83;;;8.70;99.90;;;;;;5107533;27;20052;-83
2021/11/02 15:45:33;;;;;;;4.70;2.85;;;8.70;99.90;;;;;;5068573;28;20393;-83
2021/11/02 15:48:03;;;;;;;;;;;8.60;99.90;;;;;;5106788;27;20049;-83
2021/11/02 15:50:30;;;;;;;5.65;2.67;;;8.60;99.90;;;;;;5069247;28;20369;-83
2021/11/02 15:52:59;;;;;;;;;;;8.50;99.90;;;;;;5068303;28;20044;-84
2021/11/02 15:55:26;;;;;;;2.92;2.67;;;8.50;99.90;;;;;;5085469;28;19927;-83
2021/11/02 15:57:55;;;;;;;4.05;2.55;;;8.40;99.90;;;;;;5081997;28;20129;-84
2021/11/02 16:00:38;;;;;;;5.18;3.22;;;8.40;99.90;;;;;;5069702;28;20575;-83
2021/11/02 16:03:05;;;;;;;2.13;1.88;;;8.30;99.90;;;;;;5100960;28;20044;-83
2021/11/02 16:05:34;;;;;;;3.38;2.63;;;8.30;99.90;;;;;;5067084;28;20036;-84
2021/11/02 16:08:01;;;;;;;4.13;3.50;;;8.30;99.90;;;;;;5073059;28;20481;-84
2021/11/02 16:10:29;;;;;;;3.90;2.97;;;8.30;99.90;;;;;;5082449;28;20919;-83
2021/11/02 16:12:55;;;;;;;8.05;2.65;;;8.30;99.90;;;;;;5069253;28;20074;-83
2021/11/02 16:15:34;;;;;;;7.63;3.08;;;8.30;99.90;;;;;;5069125;28;20131;-84
2021/11/02 16:18:03;;;;;;;5.38;2.75;;;8.40;99.90;;;;;;5064940;28;20067;-83
2021/11/02 16:20:36;;;;;;;6.10;3.15;;;8.40;99.90;;;;;;5094620;28;20072;-84
2021/11/02 16:23:12;;;;;;;2.97;2.58;;;8.40;99.90;;;;;;5064823;28;20116;-84
2021/11/02 16:25:53;;;;;;;5.45;3.08;;;8.30;99.90;;;;;;5067687;28;20521;-83
2021/11/02 16:28:33;;;;;;;4.40;3.03;;;8.30;99.90;;;;;;5117164;27;20044;-84
2021/11/02 16:31:06;;;;;;;8.43;3.22;;;8.30;99.90;;;;;;5086231;28;20056;-84
2021/11/02 16:33:35;;;;;;;4.00;2.92;;;8.30;99.90;;;;;;5051034;28;20055;-83
2021/11/02 16:36:28;;;;;;;3.92;2.75;;;8.30;99.90;;;;;;5069552;28;20043;-83
2021/11/02 16:38:56;;;;;;;3.42;2.47;;;8.30;99.90;;;;;;5072238;28;20056;-83
2021/11/02 16:41:27;;;;;;;3.47;1.92;;;8.30;99.90;;;;;;5068880;28;20060;-84
2021/11/02 16:44:04;;;;;;;2.88;2.60;;;8.20;99.90;;;;;;5102626;28;20480;-84
2021/11/02 16:46:34;;;;;;;2.63;2.42;;;8.20;99.90;;;;;;5086014;28;20048;-84
2021/11/02 16:49:02;;;;;;;3.47;2.42;;;8.10;99.90;;;;;;5103892;28;20044;-83
2021/11/02 16:51:52;;;;;;;7.47;4.38;;;8.10;99.90;;;;;;5107625;27;20109;-84
2021/11/02 16:54:19;;;;;;;2.80;2.17;;;8.00;99.90;;;;;;5059927;28;20544;-84
2021/11/02 16:57:02;;;;;;;3.70;2.38;;;7.90;99.90;;;;;;5058220;28;20044;-83
2021/11/02 16:59:40;;;;;;;4.60;3.53;;;7.90;99.90;;;;;;5065951;28;20083;-84
2021/11/02 17:02:18;;;;;;;5.97;3.55;;;7.80;99.90;;;;;;5068298;28;20045;-83
2021/11/02 17:05:10;;;;;;;6.07;3.72;;;7.80;99.90;;;;;;5102287;28;20480;-83
2021/11/02 17:07:42;;;;;;;6.38;2.38;;;7.70;99.90;;;;;;5075832;28;20082;-83
2021/11/02 17:10:23;;;;;;;3.17;2.88;;;7.70;99.90;;;;;;5071629;28;20371;-83
2021/11/02 17:12:56;;;;;;;3.50;3.08;;;7.70;99.90;;;;;;5089877;28;20056;-82
2021/11/02 17:15:25;;;;;;;4.25;3.80;;;7.60;99.90;;;;;;5065471;28;20052;-83
2021/11/02 17:17:55;;;;;;;2.70;2.50;;;7.60;99.90;;;;;;5098120;28;20465;-83
2021/11/02 17:20:24;;;;;;;5.03;2.83;;;7.60;99.90;;;;;;5096755;28;20123;-83
2021/11/02 17:22:51;;;;;;;4.90;3.40;;;7.60;99.90;;;;;;5069324;28;20040;-83
2021/11/02 17:25:19;;;;;;;3.70;2.85;;;7.60;99.90;;;;;;5065623;28;20048;-83
2021/11/02 17:27:46;;;;;;;4.18;3.60;;;7.60;99.90;;;;;;5100436;28;20123;-83
2021/11/02 17:30:25;;;;;;;6.68;3.65;;;7.60;99.90;;;;;;5066479;28;20052;-84
2021/11/02 17:32:53;;;;;;;4.68;3.15;;;7.60;99.90;;;;;;5064426;28;20477;-84
2021/11/02 17:35:19;;;;;;;3.15;2.75;;;7.60;99.90;;;;;;5082564;28;20059;-82
2021/11/02 17:37:51;;;;;;;4.47;4.07;;;7.60;99.90;;;;;;5064321;28;20401;-85
2021/11/02 17:40:18;;;;;;;5.97;3.55;;;7.60;99.90;;;;;;5096960;28;20128;-84
2021/11/02 17:42:46;;;;;;;3.15;2.85;;;7.60;99.90;;;;;;5076200;28;20036;-84
2021/11/02 17:45:13;;;;;;;3.20;2.90;;;7.70;99.90;;;;;;5062980;28;20051;-82
2021/11/02 17:47:44;;;;;;;3.42;2.65;;;7.70;99.90;;;;;;5051419;28;20033;-84
2021/11/02 17:50:12;;;;;;;3.70;3.40;;;7.70;99.90;;;;;;5100189;28;20068;-85
2021/11/02 17:52:38;;;;;;;4.80;3.50;;;7.70;99.90;;;;;;5101983;27;20048;-84
2021/11/02 17:55:09;;;;;;;4.00;3.30;;;7.70;99.90;;;;;;5067346;28;20036;-85
2021/11/02 17:57:37;;;;;;;8.93;4.15;;;7.70;99.90;;;;;;5067563;28;20123;-83
2021/11/02 18:00:06;;;;;;;7.35;3.25;;;7.70;99.90;;;;;;5086503;28;20424;-85
2021/11/02 18:02:33;;;;;;;2.58;2.38;;;7.70;99.90;;;;;;5069063;28;20039;-84
2021/11/02 18:04:59;;;;;;;4.43;3.35;;;7.70;99.90;;;;;;5083888;28;20507;-84
2021/11/02 18:07:26;;;;;;;6.32;3.22;;;7.70;99.90;;;;;;5064767;28;20094;-84
2021/11/02 18:09:54;;;;;;;3.70;2.25;;;7.70;99.90;;;;;;5096222;27;20080;-84
2021/11/02 18:12:21;;;;;;;4.68;2.28;;;7.70;99.90;;;;;;5034179;28;20389;-84
2021/11/02 18:14:47;;;;;;;4.90;4.18;;;7.70;99.90;;;;;;5100426;28;20390;-84
2021/11/02 18:17:14;;;;;;;7.80;3.80;;;7.70;99.90;;;;;;5032299;28;20051;-84
2021/11/02 18:19:44;;;;;;;5.85;3.97;;;7.70;99.90;;;;;;5062918;28;20094;-84